Terminal Aerodrome Forecast
Issued by NWS Cleveland, OH

Home | Current Version | Previous Version | Graphics & Text | Print | Product List | Glossary On
Versions: 1 2 3 4 5 6 7 8 9 10 11 12 13 14 15 16 17 18 19 20 21 22 23 24 25 26 27 28 29 30 31 32 33 34 35 36
000
FTUS41 KCLE 051700
TAFCLE
TAF
KCLE 051732Z 0518/0624 24004KT 5SM HZ SCT020 OVC080
      TEMPO 0518/0520 6SM -SHRA BKN020
     FM052100 02006KT 6SM -SHRA HZ SCT020 OVC080
     FM060100 04006KT 5SM -SHRA BR SCT012 OVC035
     FM060800 15004KT 2SM BR OVC012
     FM061400 30004KT 5SM HZ SCT020 BKN045
     FM061600 32005KT P6SM BKN100=

USA.gov is the U.S. government's official web portal to all federal, state and local government web resources and services.